Time;durP1;ratioP1;P1;durP2;ratioP2;P2;SDS_P1;SDS_P2;PMS_P1;PMS_P2;Temp;Humidity;BMP_temperature;BMP_pressure;BME280_temperature;BME280_humidity;BME280_pressure;Samples;Min_cycle;Max_cycle;Signal;HPM_P1;HPM_P2
2021/07/18 00:01:56;;;;;;;10.88;4.80;;;;;;;16.48;78.80;100419.16;4972012;28;20035;-67
2021/07/18 00:04:22;;;;;;;9.55;5.03;;;;;;;16.43;78.62;100416.78;4972322;28;20118;-66
2021/07/18 00:06:47;;;;;;;7.95;4.85;;;;;;;16.39;79.11;100420.63;4971564;28;20458;-67
2021/07/18 00:09:13;;;;;;;7.85;4.75;;;;;;;16.31;79.37;100422.88;4983023;28;20112;-67
2021/07/18 00:11:38;;;;;;;8.43;4.88;;;;;;;16.29;79.25;100419.47;4990679;28;20037;-67
2021/07/18 00:14:05;;;;;;;8.38;5.13;;;;;;;16.19;79.45;100423.66;4990711;28;20407;-66
2021/07/18 00:16:31;;;;;;;14.52;5.68;;;;;;;16.12;79.88;100424.97;4990418;28;20402;-66
2021/07/18 00:18:57;;;;;;;10.57;5.00;;;;;;;16.07;79.88;100418.16;4990888;28;20035;-66
2021/07/18 00:21:23;;;;;;;10.02;5.00;;;;;;;16.04;79.94;100425.47;4989027;28;21279;-68
2021/07/18 00:23:48;;;;;;;9.82;3.92;;;;;;;16.01;80.10;100430.97;4972413;28;20039;-67
2021/07/18 00:26:14;;;;;;;6.00;3.80;;;;;;;15.98;80.52;100424.03;4971377;28;20038;-67
2021/07/18 00:28:39;;;;;;;7.72;3.97;;;;;;;15.96;80.17;100425.94;4970647;28;20066;-67
2021/07/18 00:31:05;;;;;;;7.32;4.15;;;;;;;15.95;80.46;100426.00;4971046;28;20073;-68
2021/07/18 00:33:30;;;;;;;5.57;3.65;;;;;;;15.92;80.59;100411.09;4971119;28;20399;-67
2021/07/18 00:35:56;;;;;;;7.75;3.92;;;;;;;15.94;80.29;100409.22;4971092;28;20035;-67
2021/07/18 00:38:21;;;;;;;10.07;4.13;;;;;;;15.89;80.57;100417.47;4953878;28;20034;-67
2021/07/18 00:40:46;;;;;;;5.28;3.47;;;;;;;15.88;80.49;100420.25;4971381;28;20038;-67
2021/07/18 00:43:12;;;;;;;6.03;4.55;;;;;;;15.85;80.48;100412.44;4970662;28;20043;-67
2021/07/18 00:45:37;;;;;;;5.57;4.55;;;;;;;15.79;80.74;100411.00;4970439;28;20117;-67
2021/07/18 00:48:03;;;;;;;11.07;4.20;;;;;;;15.78;81.03;100411.97;4970519;28;20038;-66
2021/07/18 00:50:28;;;;;;;5.32;3.78;;;;;;;15.73;80.84;100410.53;4972394;28;20022;-66
2021/07/18 00:52:54;;;;;;;9.93;3.63;;;;;;;15.71;81.09;100407.97;4970874;28;20031;-66
2021/07/18 00:55:19;;;;;;;8.10;4.05;;;;;;;15.72;80.67;100412.31;4970729;28;20050;-67
2021/07/18 00:57:48;;;;;;;6.50;4.47;;;;;;;15.68;80.70;100405.47;4970578;28;20094;-67
2021/07/18 01:00:16;;;;;;;10.88;5.50;;;;;;;15.64;81.05;100415.41;4970658;28;20042;-67
2021/07/18 01:02:43;;;;;;;7.45;4.43;;;;;;;15.60;81.21;100408.59;4922769;28;20037;-67
2021/07/18 01:05:10;;;;;;;9.10;4.07;;;;;;;15.57;81.16;100408.75;4971332;28;20031;-67
2021/07/18 01:07:36;;;;;;;13.73;8.18;;;;;;;15.55;81.13;100407.13;4969785;28;20038;-67
2021/07/18 01:10:04;;;;;;;10.77;6.88;;;;;;;15.51;81.05;100405.63;4970750;28;20038;-67
2021/07/18 01:12:30;;;;;;;14.45;6.28;;;;;;;15.45;81.31;100412.16;4970699;28;20054;-67
2021/07/18 01:14:55;;;;;;;7.60;5.00;;;;;;;15.42;81.29;100409.69;4970908;28;20116;-67
2021/07/18 01:17:20;;;;;;;9.95;4.90;;;;;;;15.37;81.41;100403.78;4970499;28;20372;-67
2021/07/18 01:19:46;;;;;;;8.70;4.22;;;;;;;15.36;81.54;100399.44;4971064;28;20038;-68
2021/07/18 01:22:11;;;;;;;7.75;4.30;;;;;;;15.34;81.28;100396.00;4970560;28;20451;-67
2021/07/18 01:24:36;;;;;;;7.07;4.68;;;;;;;15.29;81.42;100398.09;4970613;28;20499;-66
2021/07/18 01:27:04;;;;;;;9.60;4.47;;;;;;;15.25;81.51;100405.34;4970457;28;20446;-65
2021/07/18 01:29:31;;;;;;;9.88;4.38;;;;;;;15.18;81.94;100402.19;4970306;28;20035;-67
2021/07/18 01:31:57;;;;;;;10.93;4.47;;;;;;;15.15;81.69;100409.50;4970200;28;20030;-66
2021/07/18 01:34:22;;;;;;;7.35;4.40;;;;;;;15.11;82.22;100406.19;4970354;28;20126;-66
2021/07/18 01:36:49;;;;;;;7.75;4.75;;;;;;;15.07;82.77;100399.34;4970319;28;20126;-67
2021/07/18 01:39:14;;;;;;;6.00;4.05;;;;;;;15.08;82.07;100406.34;4970260;28;20035;-66
2021/07/18 01:41:40;;;;;;;8.45;4.47;;;;;;;15.12;82.21;100399.06;4970487;28;20502;-67
2021/07/18 01:44:07;;;;;;;5.72;3.38;;;;;;;15.12;81.89;100404.38;4970230;28;20566;-66
2021/07/18 01:46:32;;;;;;;9.23;4.25;;;;;;;15.10;81.91;100406.25;4953257;28;20062;-66
2021/07/18 01:48:58;;;;;;;7.72;3.72;;;;;;;15.03;81.79;100411.91;4974119;28;20058;-66
2021/07/18 01:51:29;;;;;;;8.25;4.20;;;;;;;14.99;82.06;100402.44;4973372;28;20038;-66
2021/07/18 01:53:56;;;;;;;7.28;3.92;;;;;;;14.97;82.36;100409.63;4970511;28;20035;-66
2021/07/18 01:56:23;;;;;;;9.70;4.53;;;;;;;14.94;82.08;100396.53;4969991;28;20129;-66
2021/07/18 01:58:50;;;;;;;5.72;4.18;;;;;;;14.91;82.08;100399.34;4970778;28;20039;-65
2021/07/18 02:01:17;;;;;;;8.20;4.55;;;;;;;14.89;82.44;100403.91;4970451;28;20095;-64
2021/07/18 02:03:43;;;;;;;8.73;4.82;;;;;;;14.89;82.32;100403.91;4970308;28;20043;-64
2021/07/18 02:06:09;;;;;;;6.03;4.18;;;;;;;14.86;82.43;100404.06;4969198;28;20179;-66
2021/07/18 02:08:34;;;;;;;13.52;4.90;;;;;;;14.81;82.39;100399.00;4969779;28;20035;-67
2021/07/18 02:11:00;;;;;;;9.55;4.78;;;;;;;14.77;82.65;100388.69;4952587;28;20097;-66
2021/07/18 02:13:25;;;;;;;10.93;4.65;;;;;;;14.74;82.56;100402.09;4972530;28;20110;-67
2021/07/18 02:15:50;;;;;;;10.10;4.70;;;;;;;14.69;82.58;100397.06;4970981;28;20042;-67
2021/07/18 02:18:16;;;;;;;8.98;4.82;;;;;;;14.65;82.86;100395.53;4971044;28;20058;-67
2021/07/18 02:20:42;;;;;;;8.55;4.65;;;;;;;14.65;82.45;100405.31;4973705;28;20503;-67
2021/07/18 02:23:08;;;;;;;10.07;4.10;;;;;;;14.59;82.85;100402.06;4973659;28;20043;-67
2021/07/18 02:25:33;;;;;;;8.75;4.75;;;;;;;14.57;83.33;100405.69;4973520;28;20110;-67
2021/07/18 02:27:59;;;;;;;6.05;4.60;;;;;;;14.53;83.02;100412.13;4973379;28;20122;-67
2021/07/18 02:30:27;;;;;;;7.35;4.72;;;;;;;14.51;83.17;100401.56;4973390;28;20093;-67
2021/07/18 02:32:53;;;;;;;8.30;4.45;;;;;;;14.50;82.91;100396.38;4973200;28;20451;-67
2021/07/18 02:35:20;;;;;;;7.22;4.10;;;;;;;14.49;83.08;100405.25;4973829;28;20038;-67
2021/07/18 02:37:47;;;;;;;6.43;3.85;;;;;;;14.47;83.29;100397.41;4972646;28;20035;-67
2021/07/18 02:40:14;;;;;;;6.57;4.28;;;;;;;14.45;83.15;100395.75;4956051;28;20034;-65
2021/07/18 02:42:40;;;;;;;7.35;4.97;;;;;;;14.47;83.23;100399.16;4973115;28;20034;-66
2021/07/18 02:45:10;;;;;;;9.93;4.55;;;;;;;14.48;82.83;100395.59;4973235;28;20106;-64
2021/07/18 02:47:37;;;;;;;5.88;4.20;;;;;;;14.44;83.14;100392.25;4972836;28;20023;-66
2021/07/18 02:50:07;;;;;;;9.80;5.00;;;;;;;14.42;82.71;100399.41;4973141;28;20437;-65
2021/07/18 02:52:32;;;;;;;8.30;4.57;;;;;;;14.42;82.79;100395.91;4972586;28;20042;-65
2021/07/18 02:54:57;;;;;;;8.73;4.82;;;;;;;14.36;82.88;100395.31;4972891;28;20571;-65
2021/07/18 02:57:23;;;;;;;6.22;4.05;;;;;;;14.34;83.00;100389.25;4972925;28;20503;-66
2021/07/18 02:59:48;;;;;;;6.05;3.70;;;;;;;14.33;82.87;100389.34;4973413;28;20376;-65
2021/07/18 03:02:13;;;;;;;8.35;4.70;;;;;;;14.32;82.97;100388.50;4973152;28;20055;-66
2021/07/18 03:04:39;;;;;;;9.13;5.50;;;;;;;14.35;82.64;100390.13;4972786;28;20035;-66
2021/07/18 03:07:05;;;;;;;8.88;5.93;;;;;;;14.29;82.88;100382.47;4972520;28;20519;-64
2021/07/18 03:09:30;;;;;;;6.78;4.65;;;;;;;14.26;83.28;100383.50;4972312;28;20038;-64
2021/07/18 03:11:55;;;;;;;8.82;5.40;;;;;;;14.22;83.01;100389.91;4972589;28;20391;-65
2021/07/18 03:14:21;;;;;;;12.23;4.60;;;;;;;14.22;83.01;100373.16;4973027;28;20398;-63
2021/07/18 03:16:47;;;;;;;13.25;4.55;;;;;;;14.20;82.96;100373.25;4955099;28;20616;-63
2021/07/18 03:19:13;;;;;;;10.20;4.28;;;;;;;14.19;83.07;100379.47;4972567;28;20031;-65
2021/07/18 03:21:39;;;;;;;7.25;4.22;;;;;;;14.20;83.15;100375.03;4972269;28;20030;-66
2021/07/18 03:24:05;;;;;;;4.95;3.13;;;;;;;14.19;82.93;100382.13;4972112;28;20050;-65
2021/07/18 03:26:30;;;;;;;6.13;3.92;;;;;;;14.16;82.81;100379.66;4971804;28;20135;-65
2021/07/18 03:28:56;;;;;;;12.50;4.70;;;;;;;14.12;82.54;100381.59;4972304;28;20035;-65
2021/07/18 03:31:21;;;;;;;11.85;4.45;;;;;;;14.11;83.31;100385.22;4971800;28;20507;-66
2021/07/18 03:33:46;;;;;;;7.20;4.45;;;;;;;14.13;82.70;100385.97;4972162;28;20039;-66
2021/07/18 03:36:12;;;;;;;6.03;3.90;;;;;;;14.12;82.83;100386.91;4972032;28;20046;-67
2021/07/18 03:38:37;;;;;;;6.32;4.05;;;;;;;14.08;82.98;100392.47;4971730;28;20491;-67
2021/07/18 03:41:03;;;;;;;8.02;3.80;;;;;;;14.09;83.23;100386.22;4972057;28;20495;-66
2021/07/18 03:43:28;;;;;;;7.88;4.15;;;;;;;14.13;83.05;100382.47;4972109;28;20509;-64
2021/07/18 03:45:54;;;;;;;5.78;4.05;;;;;;;14.12;83.25;100380.75;4972803;28;20097;-66
2021/07/18 03:48:19;;;;;;;8.13;3.70;;;;;;;14.12;82.50;100388.72;4972027;28;20031;-64
2021/07/18 03:50:44;;;;;;;5.60;4.25;;;;;;;14.12;82.37;100372.78;4972685;28;20483;-64
2021/07/18 03:53:10;;;;;;;12.65;4.55;;;;;;;14.10;82.59;100372.91;4972112;28;20030;-65
2021/07/18 03:55:35;;;;;;;6.35;4.07;;;;;;;14.05;82.10;100374.91;4971845;28;20035;-65
2021/07/18 03:58:01;;;;;;;9.88;5.10;;;;;;;13.96;82.63;100378.94;4973825;28;20096;-66
2021/07/18 04:00:26;;;;;;;9.45;5.00;;;;;;;13.93;82.91;100387.06;4971779;28;20084;-65
2021/07/18 04:02:51;;;;;;;12.25;4.95;;;;;;;13.90;83.41;100387.19;4972174;28;20027;-65
2021/07/18 04:05:17;;;;;;;7.18;4.20;;;;;;;13.90;83.24;100389.84;4974394;28;20037;-67
2021/07/18 04:07:42;;;;;;;8.18;3.72;;;;;;;13.92;83.05;100395.09;4971472;28;20043;-70
2021/07/18 04:10:08;;;;;;;6.28;4.53;;;;;;;13.94;83.70;100395.88;4971671;28;20043;-66
2021/07/18 04:12:33;;;;;;;6.25;4.45;;;;;;;13.95;83.15;100394.91;4971700;28;20095;-66
2021/07/18 04:14:59;;;;;;;9.13;4.20;;;;;;;13.99;83.26;100395.63;4971616;28;20039;-66
2021/07/18 04:17:24;;;;;;;9.43;3.95;;;;;;;14.03;83.20;100389.19;4970976;28;20390;-66
2021/07/18 04:19:49;;;;;;;7.93;4.25;;;;;;;14.06;82.99;100391.69;4971577;28;20487;-66
2021/07/18 04:22:15;;;;;;;10.30;5.03;;;;;;;14.06;82.86;100392.56;4971247;28;20571;-66
2021/07/18 04:24:40;;;;;;;12.82;4.93;;;;;;;14.03;83.26;100397.16;4971176;28;20067;-65
2021/07/18 04:27:05;;;;;;;5.35;4.32;;;;;;;14.03;83.65;100389.19;4970794;28;20070;-66
2021/07/18 04:29:31;;;;;;;6.10;4.72;;;;;;;14.08;82.79;100389.84;4970979;28;20499;-67
2021/07/18 04:31:56;;;;;;;7.75;4.85;;;;;;;14.10;83.17;100391.47;4971300;28;20039;-66
2021/07/18 04:34:21;;;;;;;7.80;5.25;;;;;;;14.12;83.08;100389.56;4971701;28;20045;-67
2021/07/18 04:36:47;;;;;;;7.80;4.53;;;;;;;14.13;82.86;100385.97;4970720;28;20085;-66
2021/07/18 04:39:13;;;;;;;5.72;3.83;;;;;;;14.17;83.01;100386.66;4971051;28;20042;-65
2021/07/18 04:41:38;;;;;;;6.95;4.13;;;;;;;14.20;83.14;100389.16;4970746;28;20050;-66
2021/07/18 04:44:05;;;;;;;7.20;4.85;;;;;;;14.21;82.70;100390.00;4970647;28;20490;-66
2021/07/18 04:46:31;;;;;;;7.15;5.32;;;;;;;14.22;82.88;100392.56;4970863;28;20056;-66
2021/07/18 04:48:56;;;;;;;7.80;5.57;;;;;;;14.26;82.74;100387.97;4970999;28;20114;-66
2021/07/18 04:51:21;;;;;;;9.63;5.63;;;;;;;14.33;82.91;100387.53;4971557;28;20041;-66
2021/07/18 04:53:46;;;;;;;8.07;5.20;;;;;;;14.38;82.60;100385.47;4970853;28;20130;-65
2021/07/18 04:56:12;;;;;;;6.72;5.25;;;;;;;14.45;82.77;100391.31;4971251;28;20137;-65
2021/07/18 04:58:37;;;;;;;7.68;4.78;;;;;;;14.53;82.81;100397.06;4970509;28;20037;-66
2021/07/18 05:01:03;;;;;;;5.68;4.28;;;;;;;14.63;82.77;100404.53;4970955;28;20157;-66
2021/07/18 05:03:28;;;;;;;12.52;4.25;;;;;;;14.72;82.66;100401.38;4970860;28;20113;-65
2021/07/18 05:05:54;;;;;;;5.28;4.18;;;;;;;14.80;82.47;100409.75;4970625;28;20034;-66
2021/07/18 05:08:20;;;;;;;7.38;4.28;;;;;;;14.91;82.35;100395.84;4970522;28;20031;-65
2021/07/18 05:10:46;;;;;;;6.70;4.20;;;;;;;15.03;81.97;100403.09;4970917;28;20121;-65
2021/07/18 05:13:11;;;;;;;6.15;4.07;;;;;;;15.22;81.30;100402.88;4969638;28;20661;-66
2021/07/18 05:15:37;;;;;;;8.10;4.72;;;;;;;15.39;81.14;100396.59;4970752;28;20031;-66
2021/07/18 05:18:13;;;;;;;9.88;5.60;;;;;;;15.55;80.41;100405.34;4970888;28;20035;-66
2021/07/18 05:20:39;;;;;;;7.03;4.25;;;;;;;15.63;80.19;100405.75;4970984;28;20509;-67
2021/07/18 05:23:06;;;;;;;11.35;5.55;;;;;;;15.77;80.24;100404.94;4970638;28;20106;-66
2021/07/18 05:25:31;;;;;;;7.57;4.75;;;;;;;15.92;79.91;100403.13;4970721;28;20172;-66
2021/07/18 05:27:56;;;;;;;5.90;5.30;;;;;;;16.03;79.72;100399.81;4970251;28;20066;-67
2021/07/18 05:30:22;;;;;;;7.43;4.47;;;;;;;16.19;78.98;100397.91;4971089;28;20491;-66
2021/07/18 05:32:47;;;;;;;10.77;4.30;;;;;;;16.34;78.51;100395.22;4970875;28;20399;-67
2021/07/18 05:35:13;;;;;;;5.75;4.53;;;;;;;16.44;78.26;100391.91;4970475;28;20130;-68
2021/07/18 05:37:38;;;;;;;10.07;7.13;;;;;;;16.53;78.95;100396.59;4952647;28;20137;-66
2021/07/18 05:40:07;;;;;;;10.43;5.88;;;;;;;16.62;79.23;100394.31;4969978;28;20074;-65
2021/07/18 05:42:33;;;;;;;8.35;5.55;;;;;;;16.72;79.10;100403.44;4970326;28;20035;-65
2021/07/18 05:44:59;;;;;;;12.70;7.75;;;;;;;16.80;79.14;100398.47;4970762;28;20042;-65
2021/07/18 05:47:25;;;;;;;10.50;7.22;;;;;;;16.82;78.86;100396.56;4970077;28;20039;-64
2021/07/18 05:49:51;;;;;;;11.13;7.63;;;;;;;16.87;78.77;100397.13;4970532;28;20118;-65
2021/07/18 05:52:16;;;;;;;10.20;5.80;;;;;;;16.95;78.40;100407.25;4970121;28;20039;-66
2021/07/18 05:54:41;;;;;;;9.52;5.18;;;;;;;17.03;78.65;100414.75;4973654;28;20043;-66
2021/07/18 05:57:07;;;;;;;12.60;7.18;;;;;;;17.07;78.33;100408.28;4973963;28;20479;-66
2021/07/18 05:59:32;;;;;;;10.63;7.38;;;;;;;17.11;78.30;100407.13;4973564;28;20041;-68
2021/07/18 06:01:58;;;;;;;7.70;6.78;;;;;;;17.18;78.11;100408.44;4974434;28;20035;-68
2021/07/18 06:04:24;;;;;;;13.27;7.85;;;;;;;17.21;78.29;100402.88;4974593;28;20050;-66
2021/07/18 06:06:50;;;;;;;15.35;7.32;;;;;;;17.24;78.52;100408.00;4976175;28;20511;-65
2021/07/18 06:09:15;;;;;;;13.27;6.97;;;;;;;17.30;77.55;100412.06;4973865;28;20035;-66
2021/07/18 06:11:41;;;;;;;11.52;7.93;;;;;;;17.36;77.16;100403.66;4973772;28;20035;-67
2021/07/18 06:14:06;;;;;;;9.25;6.97;;;;;;;17.43;76.98;100410.28;4975775;28;20042;-66
2021/07/18 06:16:31;;;;;;;11.80;7.38;;;;;;;17.56;77.20;100412.97;4973458;28;20043;-66
2021/07/18 06:18:57;;;;;;;10.55;8.15;;;;;;;17.60;77.00;100418.00;4973537;28;20042;-66
2021/07/18 06:21:22;;;;;;;17.55;9.23;;;;;;;17.64;77.40;100415.94;4973890;28;20089;-66
2021/07/18 06:23:49;;;;;;;10.90;7.90;;;;;;;17.72;77.13;100413.63;4973421;28;20066;-66
2021/07/18 06:26:15;;;;;;;17.80;10.52;;;;;;;17.94;76.50;100414.81;4973605;28;20110;-66
2021/07/18 06:28:40;;;;;;;12.80;8.50;;;;;;;18.07;75.96;100417.50;4973204;28;20519;-67
2021/07/18 06:31:05;;;;;;;11.55;8.93;;;;;;;18.19;75.40;100412.16;4973575;28;20057;-67
2021/07/18 06:33:31;;;;;;;15.10;11.25;;;;;;;18.23;74.67;100410.09;4973574;28;20035;-67
2021/07/18 06:35:57;;;;;;;14.15;11.13;;;;;;;18.29;74.75;100414.16;4974974;28;20108;-67
2021/07/18 06:38:22;;;;;;;12.45;9.93;;;;;;;18.28;74.23;100415.97;4994153;28;20384;-67
2021/07/18 06:40:47;;;;;;;14.63;9.02;;;;;;;18.30;74.31;100411.38;4991321;28;20038;-67
2021/07/18 06:43:13;;;;;;;13.88;11.68;;;;;;;18.37;73.80;100415.31;5000514;28;20034;-67
2021/07/18 06:45:38;;;;;;;15.10;10.07;;;;;;;18.45;73.87;100418.28;4992176;28;20464;-67
2021/07/18 06:48:03;;;;;;;16.10;10.43;;;;;;;18.50;73.73;100415.28;4992168;28;20051;-67
2021/07/18 06:50:29;;;;;;;12.05;9.43;;;;;;;18.61;73.41;100417.19;4992468;28;20038;-66
2021/07/18 06:52:54;;;;;;;12.90;9.38;;;;;;;18.71;72.96;100420.88;4992309;28;20077;-68
2021/07/18 06:55:20;;;;;;;14.50;10.98;;;;;;;18.82;72.32;100420.13;4992822;28;20026;-68
2021/07/18 06:57:52;;;;;;;9.45;8.45;;;;;;;18.94;72.13;100419.22;4991809;28;20057;-65
2021/07/18 07:00:20;;;;;;;13.05;9.32;;;;;;;19.06;71.82;100423.66;4992082;28;20057;-65
2021/07/18 07:02:45;;;;;;;12.48;9.38;;;;;;;19.15;71.07;100430.16;4992141;28;20117;-68
2021/07/18 07:05:11;;;;;;;10.40;8.45;;;;;;;19.16;71.00;100431.84;4992072;28;20442;-66
2021/07/18 07:07:37;;;;;;;12.38;8.80;;;;;;;19.26;70.59;100430.16;4992027;28;20052;-65
2021/07/18 07:10:07;;;;;;;11.45;8.95;;;;;;;19.38;69.93;100417.69;4992111;28;20050;-65
2021/07/18 07:12:32;;;;;;;12.80;8.75;;;;;;;19.47;69.47;100427.72;4992233;28;20487;-66
2021/07/18 07:14:58;;;;;;;13.27;8.82;;;;;;;19.48;69.10;100431.22;4991716;28;20053;-66
2021/07/18 07:17:23;;;;;;;11.65;7.00;;;;;;;19.65;68.42;100432.63;4992110;28;20137;-67
2021/07/18 07:19:49;;;;;;;13.45;7.10;;;;;;;19.81;67.74;100430.47;4992004;28;20553;-65
2021/07/18 07:22:14;;;;;;;16.00;7.32;;;;;;;19.99;67.04;100427.38;4992065;28;20034;-65
2021/07/18 07:24:39;;;;;;;10.35;6.07;;;;;;;20.20;65.47;100422.97;4991692;28;20038;-66
2021/07/18 07:27:05;;;;;;;11.00;6.03;;;;;;;20.36;65.35;100428.81;4991853;28;20042;-65
2021/07/18 07:29:30;;;;;;;10.35;6.30;;;;;;;20.51;65.63;100428.56;4991495;28;20082;-65
2021/07/18 07:31:56;;;;;;;7.60;6.50;;;;;;;20.82;64.48;100432.28;4991781;28;20034;-65
2021/07/18 07:34:22;;;;;;;10.13;7.05;;;;;;;21.25;62.35;100427.91;4992339;28;20037;-65
2021/07/18 07:36:47;;;;;;;9.77;6.72;;;;;;;21.82;60.86;100427.50;4991660;28;20372;-65
2021/07/18 07:39:13;;;;;;;7.97;5.55;;;;;;;22.29;59.92;100419.00;4992685;28;20380;-66
2021/07/18 07:41:38;;;;;;;8.32;6.82;;;;;;;22.29;58.71;100422.53;4992485;28;20418;-66
2021/07/18 07:44:04;;;;;;;16.25;6.85;;;;;;;22.55;58.74;100415.84;4993107;28;20042;-66
2021/07/18 07:46:29;;;;;;;8.40;6.00;;;;;;;22.87;57.57;100424.53;4991397;28;20071;-66
2021/07/18 07:48:55;;;;;;;10.65;7.20;;;;;;;22.94;56.89;100420.31;4991534;28;20045;-66
2021/07/18 07:51:20;;;;;;;7.45;6.10;;;;;;;23.04;56.81;100414.13;4991933;28;20030;-66
2021/07/18 07:53:46;;;;;;;7.68;6.03;;;;;;;23.17;56.20;100425.44;4991365;28;20034;-66
2021/07/18 07:56:12;;;;;;;10.63;5.88;;;;;;;23.01;55.61;100422.44;4991298;28;20031;-64
2021/07/18 07:58:38;;;;;;;11.45;6.15;;;;;;;22.96;56.44;100419.31;4990519;28;20084;-65
2021/07/18 08:01:03;;;;;;;10.60;6.82;;;;;;;22.92;57.02;100424.97;4983205;28;20038;-66
2021/07/18 08:03:29;;;;;;;6.97;5.35;;;;;;;22.98;56.13;100420.88;4971571;28;20039;-65
2021/07/18 08:05:54;;;;;;;5.72;4.85;;;;;;;23.14;55.80;100423.03;4972463;28;20031;-66
2021/07/18 08:08:20;;;;;;;7.75;6.22;;;;;;;23.48;55.47;100417.19;4971717;28;20035;-67
2021/07/18 08:10:46;;;;;;;13.88;7.10;;;;;;;23.67;55.06;100416.34;4971943;28;20114;-67
2021/07/18 08:13:11;;;;;;;7.88;6.03;;;;;;;23.58;55.03;100412.69;4971403;28;20050;-67
2021/07/18 08:15:36;;;;;;;10.77;6.05;;;;;;;23.56;55.32;100415.50;4973393;28;20084;-66
2021/07/18 08:18:02;;;;;;;7.53;5.35;;;;;;;23.75;53.54;100413.78;4971231;28;20674;-67
2021/07/18 08:20:28;;;;;;;9.18;5.32;;;;;;;23.95;52.12;100407.38;4971331;28;20053;-67
2021/07/18 08:22:55;;;;;;;9.13;6.13;;;;;;;23.92;52.62;100404.97;4971861;28;20038;-67
2021/07/18 08:25:23;;;;;;;7.00;5.15;;;;;;;24.05;52.22;100407.34;4971469;28;20039;-67
2021/07/18 08:27:49;;;;;;;12.15;6.97;;;;;;;23.63;53.01;100407.72;4971280;28;20054;-66
2021/07/18 08:30:15;;;;;;;7.43;4.15;;;;;;;23.63;53.72;100402.31;4970401;28;20458;-64
2021/07/18 08:32:40;;;;;;;9.57;6.18;;;;;;;23.67;53.33;100408.25;4970988;28;20058;-65
2021/07/18 08:35:07;;;;;;;12.68;11.20;;;;;;;23.73;53.66;100400.50;4971320;28;20038;-65
2021/07/18 08:37:32;;;;;;;9.55;5.55;;;;;;;23.73;53.35;100399.66;4970913;28;20499;-66
2021/07/18 08:39:58;;;;;;;10.20;4.53;;;;;;;23.73;53.19;100399.66;4971252;28;20087;-67
2021/07/18 08:42:24;;;;;;;6.30;3.13;;;;;;;23.81;52.45;100405.13;4976106;28;20038;-64
2021/07/18 08:44:49;;;;;;;10.30;5.82;;;;;;;23.60;52.96;100402.59;4987717;28;20053;-64
2021/07/18 08:47:19;;;;;;;7.18;4.68;;;;;;;23.52;53.62;100405.16;4969123;28;20049;-65
2021/07/18 08:49:45;;;;;;;9.88;5.82;;;;;;;23.34;54.23;100400.50;4966561;28;20038;-68
2021/07/18 08:52:11;;;;;;;5.80;3.70;;;;;;;23.21;54.41;100408.03;4992176;28;20042;-66
2021/07/18 08:54:37;;;;;;;8.27;3.80;;;;;;;23.74;53.33;100404.88;4984437;28;20030;-66
2021/07/18 08:57:03;;;;;;;4.63;3.10;;;;;;;23.94;52.51;100400.28;4984594;28;20097;-66
2021/07/18 08:59:29;;;;;;;4.30;3.17;;;;;;;24.15;51.95;100396.53;4984344;28;20034;-66
2021/07/18 09:01:55;;;;;;;4.82;2.72;;;;;;;24.70;50.20;100391.13;4985036;28;20038;-66
2021/07/18 09:04:21;;;;;;;7.28;3.90;;;;;;;25.46;48.80;100392.53;4984630;28;20125;-66
2021/07/18 09:06:49;;;;;;;6.50;3.75;;;;;;;25.78;47.12;100389.22;4984884;28;20058;-65
2021/07/18 09:09:22;;;;;;;6.20;3.33;;;;;;;25.98;46.13;100384.47;4987325;28;20038;-67
2021/07/18 09:11:59;;;;;;;6.00;3.25;;;;;;;26.56;44.71;100391.00;4987984;28;20807;-67
2021/07/18 09:14:24;;;;;;;3.60;2.50;;;;;;;26.92;44.41;100399.69;4985681;28;20045;-64
2021/07/18 09:16:51;;;;;;;4.68;2.30;;;;;;;27.39;42.84;100390.09;4984484;28;20089;-66
2021/07/18 09:19:35;;;;;;;4.90;2.95;;;;;;;27.55;41.58;100394.69;4984821;28;20399;-67
2021/07/18 09:22:03;;;;;;;4.43;2.17;;;;;;;28.08;40.94;100393.22;4983588;28;20096;-67
2021/07/18 09:24:30;;;;;;;4.03;2.55;;;;;;;28.39;39.63;100390.56;4965106;28;20043;-66
2021/07/18 09:27:16;;;;;;;3.55;2.25;;;;;;;28.84;38.86;100386.25;4965125;28;20565;-66
2021/07/18 09:29:47;;;;;;;5.78;2.55;;;;;;;28.78;38.46;100389.72;4964484;28;20494;-67
2021/07/18 09:32:16;;;;;;;3.13;2.53;;;;;;;28.75;39.05;100386.50;4964921;28;20034;-68
2021/07/18 09:34:45;;;;;;;5.50;2.58;;;;;;;29.30;37.80;100380.03;4964636;28;20089;-66
2021/07/18 09:37:14;;;;;;;9.23;3.05;;;;;;;29.22;37.83;100385.53;4964033;28;20066;-68
2021/07/18 09:39:47;;;;;;;4.05;3.00;;;;;;;29.79;37.21;100382.31;4965029;28;20034;-67
2021/07/18 09:42:44;;;;;;;4.30;3.13;;;;;;;30.08;36.02;100386.91;4963533;28;20042;-73
2021/07/18 09:45:12;;;;;;;5.93;3.28;;;;;;;30.26;35.86;100388.44;4966298;28;20042;-71
2021/07/18 09:47:49;;;;;;;5.75;2.63;;;;;;;30.75;34.90;100383.16;4964669;28;20042;-71
2021/07/18 09:50:17;;;;;;;5.88;3.80;;;;;;;31.09;34.91;100376.22;4983919;28;20092;-72
2021/07/18 09:52:48;;;;;;;5.88;2.92;;;;;;;31.60;33.54;100380.63;4984562;28;20092;-72
2021/07/18 09:55:20;;;;;;;5.43;3.58;;;;;;;30.96;34.72;100386.94;4968943;28;20108;-73
2021/07/18 09:57:51;;;;;;;8.65;3.65;;;;;;;30.86;34.35;100376.38;5004038;28;20037;-72
2021/07/18 10:00:18;;;;;;;5.63;3.10;;;;;;;31.40;33.90;100370.41;5003815;28;20045;-72
2021/07/18 10:02:45;;;;;;;4.68;3.17;;;;;;;31.93;33.32;100366.38;4973589;28;20035;-72
2021/07/18 10:05:25;;;;;;;6.93;3.10;;;;;;;31.95;33.04;100370.63;4965057;28;20027;-72
2021/07/18 10:07:51;;;;;;;6.35;3.38;;;;;;;32.15;32.58;100367.16;4947427;28;20031;-74
2021/07/18 10:10:16;;;;;;;3.88;3.05;;;;;;;32.22;32.46;100370.75;4967063;28;20783;-73
2021/07/18 10:12:42;;;;;;;4.40;3.00;;;;;;;32.13;32.49;100367.34;4965445;28;20653;-74
2021/07/18 10:15:08;;;;;;;5.93;3.00;;;;;;;32.24;32.67;100371.38;4983331;28;20281;-72
2021/07/18 10:17:34;;;;;;;6.82;3.25;;;;;;;32.08;32.06;100365.22;4983887;28;20126;-73
2021/07/18 10:19:59;;;;;;;4.13;3.13;;;;;;;32.21;32.19;100359.00;4984328;28;20437;-72
2021/07/18 10:22:25;;;;;;;5.32;3.58;;;;;;;32.38;31.86;100356.75;4967725;28;20645;-72
2021/07/18 10:24:53;;;;;;;5.93;3.58;;;;;;;32.81;31.58;100352.91;4973367;28;20038;-72
2021/07/18 10:27:22;;;;;;;4.88;2.70;;;;;;;33.09;30.83;100350.88;4964968;28;20522;-74
2021/07/18 10:29:52;;;;;;;4.63;3.15;;;;;;;33.08;30.01;100353.81;4965086;28;20093;-73
2021/07/18 10:32:19;;;;;;;4.53;2.80;;;;;;;32.57;30.78;100355.19;4965417;28;20723;-72
2021/07/18 10:34:45;;;;;;;11.75;3.50;;;;;;;32.14;31.33;100360.84;4965453;28;20031;-71
2021/07/18 10:37:12;;;;;;;3.92;3.08;;;;;;;31.87;32.22;100355.25;4965086;28;20035;-72
2021/07/18 10:39:43;;;;;;;4.75;3.20;;;;;;;32.00;31.92;100359.94;4966120;28;20035;-72
2021/07/18 10:42:18;;;;;;;3.55;2.88;;;;;;;32.24;32.21;100353.16;5008590;28;20045;-72
2021/07/18 10:44:48;;;;;;;9.82;3.55;;;;;;;32.52;30.88;100357.69;4991308;28;20509;-72
2021/07/18 10:47:15;;;;;;;4.47;2.75;;;;;;;31.98;31.29;100358.47;5008769;28;20121;-72
2021/07/18 10:49:46;;;;;;;5.38;2.80;;;;;;;32.24;31.67;100360.47;5008119;28;20046;-72
2021/07/18 10:52:13;;;;;;;3.75;2.80;;;;;;;32.42;30.77;100355.31;4997187;28;20072;-75
2021/07/18 10:54:42;;;;;;;3.67;2.53;;;;;;;32.78;30.81;100350.59;4988738;28;20131;-73
2021/07/18 10:57:21;;;;;;;2.88;2.10;;;;;;;33.06;29.89;100348.56;4988835;28;20049;-73
2021/07/18 10:59:46;;;;;;;5.70;3.08;;;;;;;32.83;30.36;100348.06;4986005;28;20507;-72
2021/07/18 11:02:14;;;;;;;4.63;2.88;;;;;;;32.42;31.13;100346.28;4986583;28;20041;-73
2021/07/18 11:04:50;;;;;;;5.00;2.63;;;;;;;31.91;32.12;100343.91;4983428;28;20436;-73
2021/07/18 11:07:21;;;;;;;6.72;3.45;;;;;;;31.21;33.67;100346.56;4965910;28;20411;-73
2021/07/18 11:09:47;;;;;;;5.82;2.83;;;;;;;30.78;34.21;100341.09;4973241;28;20054;-73
2021/07/18 11:12:45;;;;;;;4.05;2.70;;;;;;;30.04;35.52;100339.34;4967662;28;20126;-73
2021/07/18 11:15:16;;;;;;;3.60;2.88;;;;;;;29.40;36.29;100336.31;4967981;28;20146;-73
2021/07/18 11:18:02;;;;;;;6.80;2.55;;;;;;;28.97;37.73;100336.84;4968084;28;20085;-72
2021/07/18 11:20:48;;;;;;;4.57;3.60;;;;;;;28.76;37.60;100339.34;4968347;28;20043;-74